sensor_id;sensor_type;location;lat;lon;timestamp;P1;durP1;ratioP1;P2;durP2;ratioP2
37945;SDS011;23769;52.478;13.448;2023-06-22T00:01:17;13.73;;;11.10;;
37945;SDS011;23769;52.478;13.448;2023-06-22T00:03:46;15.43;;;12.50;;
37945;SDS011;23769;52.478;13.448;2023-06-22T00:06:13;13.02;;;11.60;;
37945;SDS011;23769;52.478;13.448;2023-06-22T00:08:41;13.40;;;11.88;;
37945;SDS011;23769;52.478;13.448;2023-06-22T00:11:08;12.85;;;11.38;;
37945;SDS011;23769;52.478;13.448;2023-06-22T00:13:38;14.65;;;11.52;;
37945;SDS011;23769;52.478;13.448;2023-06-22T00:16:06;13.10;;;11.70;;
37945;SDS011;23769;52.478;13.448;2023-06-22T00:18:34;14.07;;;11.98;;
37945;SDS011;23769;52.478;13.448;2023-06-22T00:21:03;14.15;;;11.32;;
37945;SDS011;23769;52.478;13.448;2023-06-22T00:23:31;13.35;;;11.40;;
37945;SDS011;23769;52.478;13.448;2023-06-22T00:25:59;12.02;;;10.77;;
37945;SDS011;23769;52.478;13.448;2023-06-22T00:28:27;11.57;;;10.38;;
37945;SDS011;23769;52.478;13.448;2023-06-22T00:30:57;12.30;;;10.88;;
37945;SDS011;23769;52.478;13.448;2023-06-22T00:33:25;12.15;;;10.85;;
37945;SDS011;23769;52.478;13.448;2023-06-22T00:35:53;16.52;;;11.00;;
37945;SDS011;23769;52.478;13.448;2023-06-22T00:38:22;15.55;;;12.15;;
37945;SDS011;23769;52.478;13.448;2023-06-22T00:40:50;11.68;;;10.25;;
37945;SDS011;23769;52.478;13.448;2023-06-22T00:43:17;16.05;;;11.77;;
37945;SDS011;23769;52.478;13.448;2023-06-22T00:45:45;13.75;;;11.65;;
37945;SDS011;23769;52.478;13.448;2023-06-22T00:48:12;11.73;;;10.50;;
37945;SDS011;23769;52.478;13.448;2023-06-22T00:50:41;12.05;;;10.77;;
37945;SDS011;23769;52.478;13.448;2023-06-22T00:53:08;12.00;;;10.40;;
37945;SDS011;23769;52.478;13.448;2023-06-22T00:55:39;13.90;;;12.40;;
37945;SDS011;23769;52.478;13.448;2023-06-22T00:58:08;13.47;;;11.00;;
37945;SDS011;23769;52.478;13.448;2023-06-22T01:00:36;14.55;;;11.98;;
37945;SDS011;23769;52.478;13.448;2023-06-22T01:03:04;14.35;;;12.07;;
37945;SDS011;23769;52.478;13.448;2023-06-22T01:05:34;12.93;;;10.60;;
37945;SDS011;23769;52.478;13.448;2023-06-22T01:08:05;12.32;;;11.02;;
37945;SDS011;23769;52.478;13.448;2023-06-22T01:10:39;12.98;;;11.45;;
37945;SDS011;23769;52.478;13.448;2023-06-22T01:13:08;11.45;;;10.25;;
37945;SDS011;23769;52.478;13.448;2023-06-22T01:15:40;15.63;;;11.90;;
37945;SDS011;23769;52.478;13.448;2023-06-22T01:18:11;13.98;;;12.13;;
37945;SDS011;23769;52.478;13.448;2023-06-22T01:20:40;13.18;;;11.88;;
37945;SDS011;23769;52.478;13.448;2023-06-22T01:23:10;15.35;;;11.48;;
37945;SDS011;23769;52.478;13.448;2023-06-22T01:25:43;12.93;;;11.25;;
37945;SDS011;23769;52.478;13.448;2023-06-22T01:28:17;12.73;;;11.40;;
37945;SDS011;23769;52.478;13.448;2023-06-22T01:30:48;12.15;;;10.90;;
37945;SDS011;23769;52.478;13.448;2023-06-22T01:33:31;14.43;;;11.77;;
37945;SDS011;23769;52.478;13.448;2023-06-22T01:36:00;13.20;;;11.75;;
37945;SDS011;23769;52.478;13.448;2023-06-22T01:38:28;12.90;;;11.57;;
37945;SDS011;23769;52.478;13.448;2023-06-22T01:40:56;15.57;;;12.70;;
37945;SDS011;23769;52.478;13.448;2023-06-22T01:43:25;13.60;;;11.77;;
37945;SDS011;23769;52.478;13.448;2023-06-22T01:45:55;12.32;;;10.90;;
37945;SDS011;23769;52.478;13.448;2023-06-22T01:48:24;13.48;;;12.15;;
37945;SDS011;23769;52.478;13.448;2023-06-22T01:50:52;15.75;;;14.00;;
37945;SDS011;23769;52.478;13.448;2023-06-22T01:53:20;14.80;;;12.57;;
37945;SDS011;23769;52.478;13.448;2023-06-22T01:55:48;14.15;;;11.88;;
37945;SDS011;23769;52.478;13.448;2023-06-22T01:58:16;15.98;;;12.38;;
37945;SDS011;23769;52.478;13.448;2023-06-22T02:00:44;16.23;;;12.98;;
37945;SDS011;23769;52.478;13.448;2023-06-22T02:03:17;15.50;;;12.38;;
37945;SDS011;23769;52.478;13.448;2023-06-22T02:05:48;14.90;;;13.13;;
37945;SDS011;23769;52.478;13.448;2023-06-22T02:08:17;16.23;;;14.52;;
37945;SDS011;23769;52.478;13.448;2023-06-22T02:10:46;16.40;;;14.70;;
37945;SDS011;23769;52.478;13.448;2023-06-22T02:13:15;16.25;;;13.55;;
37945;SDS011;23769;52.478;13.448;2023-06-22T02:15:43;16.33;;;14.10;;
37945;SDS011;23769;52.478;13.448;2023-06-22T02:18:11;16.13;;;14.43;;
37945;SDS011;23769;52.478;13.448;2023-06-22T02:20:43;17.90;;;14.32;;
37945;SDS011;23769;52.478;13.448;2023-06-22T02:23:11;15.60;;;13.93;;
37945;SDS011;23769;52.478;13.448;2023-06-22T02:25:38;15.27;;;13.68;;
37945;SDS011;23769;52.478;13.448;2023-06-22T02:28:09;17.77;;;15.30;;
37945;SDS011;23769;52.478;13.448;2023-06-22T02:30:36;18.10;;;15.23;;
37945;SDS011;23769;52.478;13.448;2023-06-22T02:33:04;15.35;;;13.75;;
37945;SDS011;23769;52.478;13.448;2023-06-22T02:35:31;15.50;;;13.55;;
37945;SDS011;23769;52.478;13.448;2023-06-22T02:38:02;17.55;;;15.00;;
37945;SDS011;23769;52.478;13.448;2023-06-22T02:40:30;15.52;;;13.30;;
37945;SDS011;23769;52.478;13.448;2023-06-22T02:42:57;17.58;;;14.48;;
37945;SDS011;23769;52.478;13.448;2023-06-22T02:45:29;14.65;;;12.88;;
37945;SDS011;23769;52.478;13.448;2023-06-22T02:47:57;16.05;;;14.43;;
37945;SDS011;23769;52.478;13.448;2023-06-22T02:50:25;15.35;;;13.70;;
37945;SDS011;23769;52.478;13.448;2023-06-22T02:52:54;17.08;;;15.07;;
37945;SDS011;23769;52.478;13.448;2023-06-22T02:55:23;16.55;;;14.35;;
37945;SDS011;23769;52.478;13.448;2023-06-22T02:57:51;16.30;;;14.35;;
37945;SDS011;23769;52.478;13.448;2023-06-22T03:00:19;19.55;;;15.00;;
37945;SDS011;23769;52.478;13.448;2023-06-22T03:02:47;17.10;;;13.93;;
37945;SDS011;23769;52.478;13.448;2023-06-22T03:05:15;15.20;;;13.40;;
37945;SDS011;23769;52.478;13.448;2023-06-22T03:07:43;14.98;;;13.38;;
37945;SDS011;23769;52.478;13.448;2023-06-22T03:10:14;17.33;;;14.38;;
37945;SDS011;23769;52.478;13.448;2023-06-22T03:12:43;17.83;;;14.23;;
37945;SDS011;23769;52.478;13.448;2023-06-22T03:15:11;16.75;;;13.60;;
37945;SDS011;23769;52.478;13.448;2023-06-22T03:17:39;14.23;;;12.80;;
37945;SDS011;23769;52.478;13.448;2023-06-22T03:20:08;13.80;;;12.30;;
37945;SDS011;23769;52.478;13.448;2023-06-22T03:22:36;16.48;;;12.82;;
37945;SDS011;23769;52.478;13.448;2023-06-22T03:25:04;15.80;;;12.40;;
37945;SDS011;23769;52.478;13.448;2023-06-22T03:27:35;17.73;;;13.38;;
37945;SDS011;23769;52.478;13.448;2023-06-22T03:30:05;13.95;;;12.45;;
37945;SDS011;23769;52.478;13.448;2023-06-22T03:32:32;15.20;;;13.60;;
37945;SDS011;23769;52.478;13.448;2023-06-22T03:35:00;19.05;;;13.18;;
37945;SDS011;23769;52.478;13.448;2023-06-22T03:37:27;14.93;;;13.30;;
37945;SDS011;23769;52.478;13.448;2023-06-22T03:39:55;12.45;;;11.10;;
37945;SDS011;23769;52.478;13.448;2023-06-22T03:42:23;12.80;;;11.50;;
37945;SDS011;23769;52.478;13.448;2023-06-22T03:44:50;12.98;;;11.52;;
37945;SDS011;23769;52.478;13.448;2023-06-22T03:47:19;12.38;;;11.07;;
37945;SDS011;23769;52.478;13.448;2023-06-22T03:49:47;13.45;;;12.05;;
37945;SDS011;23769;52.478;13.448;2023-06-22T03:52:14;12.95;;;11.63;;
37945;SDS011;23769;52.478;13.448;2023-06-22T03:54:42;13.93;;;11.90;;
37945;SDS011;23769;52.478;13.448;2023-06-22T03:57:09;11.90;;;10.57;;
37945;SDS011;23769;52.478;13.448;2023-06-22T03:59:36;13.15;;;10.52;;
37945;SDS011;23769;52.478;13.448;2023-06-22T04:02:04;13.77;;;10.52;;
37945;SDS011;23769;52.478;13.448;2023-06-22T04:04:33;14.13;;;11.45;;
37945;SDS011;23769;52.478;13.448;2023-06-22T04:07:00;12.60;;;10.10;;
37945;SDS011;23769;52.478;13.448;2023-06-22T04:09:28;11.35;;;10.15;;
37945;SDS011;23769;52.478;13.448;2023-06-22T04:11:55;12.95;;;9.57;;
37945;SDS011;23769;52.478;13.448;2023-06-22T04:14:22;12.80;;;8.95;;
37945;SDS011;23769;52.478;13.448;2023-06-22T04:16:50;11.88;;;9.70;;
37945;SDS011;23769;52.478;13.448;2023-06-22T04:19:17;10.57;;;8.50;;
37945;SDS011;23769;52.478;13.448;2023-06-22T04:21:46;12.65;;;8.93;;
37945;SDS011;23769;52.478;13.448;2023-06-22T04:24:14;10.45;;;9.45;;
37945;SDS011;23769;52.478;13.448;2023-06-22T04:26:42;12.07;;;9.88;;
37945;SDS011;23769;52.478;13.448;2023-06-22T04:29:10;11.13;;;10.02;;
37945;SDS011;23769;52.478;13.448;2023-06-22T04:31:38;10.63;;;9.48;;
37945;SDS011;23769;52.478;13.448;2023-06-22T04:34:08;11.57;;;9.30;;
37945;SDS011;23769;52.478;13.448;2023-06-22T04:36:36;9.52;;;8.25;;
37945;SDS011;23769;52.478;13.448;2023-06-22T04:39:06;9.98;;;8.07;;
37945;SDS011;23769;52.478;13.448;2023-06-22T04:41:34;10.23;;;8.05;;
37945;SDS011;23769;52.478;13.448;2023-06-22T04:44:11;15.10;;;13.50;;
37945;SDS011;23769;52.478;13.448;2023-06-22T04:46:38;10.25;;;7.53;;
37945;SDS011;23769;52.478;13.448;2023-06-22T04:49:06;9.52;;;6.93;;
37945;SDS011;23769;52.478;13.448;2023-06-22T04:51:36;8.32;;;6.00;;
37945;SDS011;23769;52.478;13.448;2023-06-22T04:54:04;8.35;;;6.57;;
37945;SDS011;23769;52.478;13.448;2023-06-22T04:56:32;8.48;;;6.90;;
37945;SDS011;23769;52.478;13.448;2023-06-22T04:59:00;7.72;;;6.95;;
37945;SDS011;23769;52.478;13.448;2023-06-22T05:01:28;9.02;;;7.13;;
37945;SDS011;23769;52.478;13.448;2023-06-22T05:03:57;7.97;;;7.13;;
37945;SDS011;23769;52.478;13.448;2023-06-22T05:06:26;10.43;;;7.85;;
37945;SDS011;23769;52.478;13.448;2023-06-22T05:08:54;12.63;;;8.93;;
37945;SDS011;23769;52.478;13.448;2023-06-22T05:11:23;7.28;;;6.40;;
37945;SDS011;23769;52.478;13.448;2023-06-22T05:13:51;7.75;;;6.50;;
37945;SDS011;23769;52.478;13.448;2023-06-22T05:16:19;7.25;;;6.55;;
37945;SDS011;23769;52.478;13.448;2023-06-22T05:18:49;8.65;;;6.30;;
37945;SDS011;23769;52.478;13.448;2023-06-22T05:21:16;9.93;;;6.35;;
37945;SDS011;23769;52.478;13.448;2023-06-22T05:23:44;6.97;;;5.32;;
37945;SDS011;23769;52.478;13.448;2023-06-22T05:26:12;8.52;;;6.40;;
37945;SDS011;23769;52.478;13.448;2023-06-22T05:28:39;6.38;;;5.75;;
37945;SDS011;23769;52.478;13.448;2023-06-22T05:31:08;7.65;;;6.60;;
37945;SDS011;23769;52.478;13.448;2023-06-22T05:33:35;6.53;;;5.80;;
37945;SDS011;23769;52.478;13.448;2023-06-22T05:36:03;7.57;;;5.97;;
37945;SDS011;23769;52.478;13.448;2023-06-22T05:38:30;9.32;;;5.47;;
37945;SDS011;23769;52.478;13.448;2023-06-22T05:40:57;6.32;;;5.60;;
37945;SDS011;23769;52.478;13.448;2023-06-22T05:43:25;7.88;;;5.53;;
37945;SDS011;23769;52.478;13.448;2023-06-22T05:45:52;6.45;;;4.93;;
37945;SDS011;23769;52.478;13.448;2023-06-22T05:48:21;9.88;;;5.57;;
37945;SDS011;23769;52.478;13.448;2023-06-22T05:50:48;7.45;;;5.70;;
37945;SDS011;23769;52.478;13.448;2023-06-22T05:53:16;7.43;;;4.85;;
37945;SDS011;23769;52.478;13.448;2023-06-22T05:55:43;8.10;;;5.30;;
37945;SDS011;23769;52.478;13.448;2023-06-22T05:58:11;6.00;;;5.45;;
37945;SDS011;23769;52.478;13.448;2023-06-22T06:00:38;6.40;;;5.00;;
37945;SDS011;23769;52.478;13.448;2023-06-22T06:03:06;5.80;;;4.90;;
37945;SDS011;23769;52.478;13.448;2023-06-22T06:05:35;7.93;;;4.97;;
37945;SDS011;23769;52.478;13.448;2023-06-22T06:08:03;7.53;;;4.68;;
37945;SDS011;23769;52.478;13.448;2023-06-22T06:10:32;5.97;;;4.93;;
37945;SDS011;23769;52.478;13.448;2023-06-22T06:13:00;7.75;;;5.03;;
37945;SDS011;23769;52.478;13.448;2023-06-22T06:15:29;6.45;;;5.22;;
37945;SDS011;23769;52.478;13.448;2023-06-22T06:17:57;5.20;;;4.65;;
37945;SDS011;23769;52.478;13.448;2023-06-22T06:20:25;5.78;;;4.30;;
37945;SDS011;23769;52.478;13.448;2023-06-22T06:22:54;7.63;;;5.00;;
37945;SDS011;23769;52.478;13.448;2023-06-22T06:25:22;7.57;;;4.97;;
37945;SDS011;23769;52.478;13.448;2023-06-22T06:27:51;5.53;;;4.50;;
37945;SDS011;23769;52.478;13.448;2023-06-22T06:30:19;6.95;;;4.50;;
37945;SDS011;23769;52.478;13.448;2023-06-22T06:32:48;8.77;;;4.72;;
37945;SDS011;23769;52.478;13.448;2023-06-22T06:35:15;5.93;;;4.20;;
37945;SDS011;23769;52.478;13.448;2023-06-22T06:37:43;3.95;;;3.50;;
37945;SDS011;23769;52.478;13.448;2023-06-22T06:40:13;6.05;;;4.80;;
37945;SDS011;23769;52.478;13.448;2023-06-22T06:42:44;4.38;;;3.58;;
37945;SDS011;23769;52.478;13.448;2023-06-22T06:45:22;5.50;;;4.32;;
37945;SDS011;23769;52.478;13.448;2023-06-22T06:47:51;7.18;;;4.18;;
37945;SDS011;23769;52.478;13.448;2023-06-22T06:50:18;5.18;;;3.65;;
37945;SDS011;23769;52.478;13.448;2023-06-22T06:52:46;6.03;;;4.10;;
37945;SDS011;23769;52.478;13.448;2023-06-22T06:55:16;4.60;;;3.33;;
37945;SDS011;23769;52.478;13.448;2023-06-22T06:57:45;5.57;;;3.03;;
37945;SDS011;23769;52.478;13.448;2023-06-22T07:00:13;4.65;;;2.92;;
37945;SDS011;23769;52.478;13.448;2023-06-22T07:02:41;5.60;;;3.53;;
37945;SDS011;23769;52.478;13.448;2023-06-22T07:05:09;4.20;;;3.28;;
37945;SDS011;23769;52.478;13.448;2023-06-22T07:07:37;6.13;;;3.30;;
37945;SDS011;23769;52.478;13.448;2023-06-22T07:10:05;5.53;;;3.40;;
37945;SDS011;23769;52.478;13.448;2023-06-22T07:12:34;5.50;;;3.83;;
37945;SDS011;23769;52.478;13.448;2023-06-22T07:15:02;4.05;;;3.17;;
37945;SDS011;23769;52.478;13.448;2023-06-22T07:17:30;21.77;;;3.13;;
37945;SDS011;23769;52.478;13.448;2023-06-22T07:19:57;3.25;;;2.53;;
37945;SDS011;23769;52.478;13.448;2023-06-22T07:22:25;3.83;;;2.80;;
37945;SDS011;23769;52.478;13.448;2023-06-22T07:24:52;8.25;;;2.75;;
37945;SDS011;23769;52.478;13.448;2023-06-22T07:27:19;4.70;;;3.17;;
37945;SDS011;23769;52.478;13.448;2023-06-22T07:29:48;5.20;;;3.10;;
37945;SDS011;23769;52.478;13.448;2023-06-22T07:32:15;2.47;;;2.28;;
37945;SDS011;23769;52.478;13.448;2023-06-22T07:34:46;5.45;;;2.65;;
37945;SDS011;23769;52.478;13.448;2023-06-22T07:37:13;4.38;;;2.55;;
37945;SDS011;23769;52.478;13.448;2023-06-22T07:39:41;8.25;;;2.63;;
37945;SDS011;23769;52.478;13.448;2023-06-22T07:42:08;4.00;;;2.10;;
37945;SDS011;23769;52.478;13.448;2023-06-22T07:44:36;4.40;;;2.38;;
37945;SDS011;23769;52.478;13.448;2023-06-22T07:47:05;5.45;;;2.83;;
37945;SDS011;23769;52.478;13.448;2023-06-22T07:49:33;4.30;;;2.67;;
37945;SDS011;23769;52.478;13.448;2023-06-22T07:52:00;5.90;;;2.85;;
37945;SDS011;23769;52.478;13.448;2023-06-22T07:54:28;4.20;;;2.67;;
37945;SDS011;23769;52.478;13.448;2023-06-22T07:56:56;5.38;;;2.13;;
37945;SDS011;23769;52.478;13.448;2023-06-22T07:59:23;3.13;;;2.47;;
37945;SDS011;23769;52.478;13.448;2023-06-22T08:01:51;6.05;;;3.10;;
37945;SDS011;23769;52.478;13.448;2023-06-22T08:04:20;5.28;;;2.45;;
37945;SDS011;23769;52.478;13.448;2023-06-22T08:06:48;3.45;;;2.50;;
37945;SDS011;23769;52.478;13.448;2023-06-22T08:09:15;4.75;;;2.20;;
37945;SDS011;23769;52.478;13.448;2023-06-22T08:11:43;5.35;;;2.53;;
37945;SDS011;23769;52.478;13.448;2023-06-22T08:14:10;2.85;;;2.50;;
37945;SDS011;23769;52.478;13.448;2023-06-22T08:16:38;4.28;;;2.40;;
37945;SDS011;23769;52.478;13.448;2023-06-22T08:19:07;3.03;;;2.38;;
37945;SDS011;23769;52.478;13.448;2023-06-22T08:21:36;4.10;;;2.90;;
37945;SDS011;23769;52.478;13.448;2023-06-22T08:24:04;2.40;;;2.20;;
37945;SDS011;23769;52.478;13.448;2023-06-22T08:26:32;2.97;;;2.50;;
37945;SDS011;23769;52.478;13.448;2023-06-22T08:29:02;3.33;;;2.75;;
37945;SDS011;23769;52.478;13.448;2023-06-22T08:31:30;5.95;;;3.00;;
37945;SDS011;23769;52.478;13.448;2023-06-22T08:33:59;3.35;;;2.70;;
37945;SDS011;23769;52.478;13.448;2023-06-22T08:36:27;6.20;;;3.10;;
37945;SDS011;23769;52.478;13.448;2023-06-22T08:38:56;4.85;;;3.28;;
37945;SDS011;23769;52.478;13.448;2023-06-22T08:41:41;5.72;;;3.10;;
37945;SDS011;23769;52.478;13.448;2023-06-22T08:44:10;6.43;;;3.00;;
37945;SDS011;23769;52.478;13.448;2023-06-22T08:46:38;2.90;;;2.60;;
37945;SDS011;23769;52.478;13.448;2023-06-22T08:49:07;4.10;;;3.03;;
37945;SDS011;23769;52.478;13.448;2023-06-22T08:51:35;4.65;;;2.78;;
37945;SDS011;23769;52.478;13.448;2023-06-22T08:54:08;4.07;;;3.05;;
37945;SDS011;23769;52.478;13.448;2023-06-22T08:59:03;4.65;;;2.42;;
37945;SDS011;23769;52.478;13.448;2023-06-22T09:01:32;4.10;;;2.42;;
37945;SDS011;23769;52.478;13.448;2023-06-22T09:04:00;3.50;;;2.88;;
37945;SDS011;23769;52.478;13.448;2023-06-22T09:06:29;5.50;;;2.70;;
37945;SDS011;23769;52.478;13.448;2023-06-22T09:08:57;3.20;;;2.45;;
37945;SDS011;23769;52.478;13.448;2023-06-22T09:11:27;4.20;;;2.58;;
37945;SDS011;23769;52.478;13.448;2023-06-22T09:13:54;2.97;;;2.53;;
37945;SDS011;23769;52.478;13.448;2023-06-22T09:16:22;5.60;;;3.25;;
37945;SDS011;23769;52.478;13.448;2023-06-22T09:18:49;3.30;;;2.67;;
37945;SDS011;23769;52.478;13.448;2023-06-22T09:21:17;3.20;;;2.80;;
37945;SDS011;23769;52.478;13.448;2023-06-22T09:23:45;3.03;;;2.72;;
37945;SDS011;23769;52.478;13.448;2023-06-22T09:26:16;6.28;;;2.80;;
37945;SDS011;23769;52.478;13.448;2023-06-22T09:28:45;3.58;;;3.00;;
37945;SDS011;23769;52.478;13.448;2023-06-22T09:31:12;4.50;;;2.88;;
37945;SDS011;23769;52.478;13.448;2023-06-22T09:33:41;4.65;;;2.72;;
37945;SDS011;23769;52.478;13.448;2023-06-22T09:36:09;9.55;;;2.85;;
37945;SDS011;23769;52.478;13.448;2023-06-22T09:38:37;5.90;;;2.55;;
37945;SDS011;23769;52.478;13.448;2023-06-22T09:41:05;3.58;;;2.75;;
37945;SDS011;23769;52.478;13.448;2023-06-22T09:43:33;4.30;;;3.08;;
37945;SDS011;23769;52.478;13.448;2023-06-22T09:46:03;3.85;;;2.70;;
37945;SDS011;23769;52.478;13.448;2023-06-22T09:48:32;3.33;;;2.80;;
37945;SDS011;23769;52.478;13.448;2023-06-22T09:50:59;4.03;;;3.00;;
37945;SDS011;23769;52.478;13.448;2023-06-22T09:53:30;4.82;;;2.63;;
37945;SDS011;23769;52.478;13.448;2023-06-22T09:56:03;4.40;;;2.88;;
37945;SDS011;23769;52.478;13.448;2023-06-22T09:58:31;3.47;;;2.78;;
37945;SDS011;23769;52.478;13.448;2023-06-22T10:00:59;3.53;;;3.20;;
37945;SDS011;23769;52.478;13.448;2023-06-22T10:03:28;4.13;;;3.05;;
37945;SDS011;23769;52.478;13.448;2023-06-22T10:05:56;4.43;;;3.00;;
37945;SDS011;23769;52.478;13.448;2023-06-22T10:08:26;5.55;;;3.05;;
37945;SDS011;23769;52.478;13.448;2023-06-22T10:10:53;3.55;;;2.97;;
37945;SDS011;23769;52.478;13.448;2023-06-22T10:13:21;3.53;;;2.70;;
37945;SDS011;23769;52.478;13.448;2023-06-22T10:15:48;4.80;;;3.35;;
37945;SDS011;23769;52.478;13.448;2023-06-22T10:18:17;5.80;;;2.65;;
37945;SDS011;23769;52.478;13.448;2023-06-22T10:20:46;3.38;;;3.00;;
37945;SDS011;23769;52.478;13.448;2023-06-22T10:23:15;3.97;;;3.10;;
37945;SDS011;23769;52.478;13.448;2023-06-22T10:28:21;4.07;;;3.03;;
37945;SDS011;23769;52.478;13.448;2023-06-22T10:30:49;3.55;;;2.50;;
37945;SDS011;23769;52.478;13.448;2023-06-22T10:33:16;4.25;;;2.78;;
37945;SDS011;23769;52.478;13.448;2023-06-22T10:35:45;2.95;;;2.65;;
37945;SDS011;23769;52.478;13.448;2023-06-22T10:38:12;4.00;;;2.58;;
37945;SDS011;23769;52.478;13.448;2023-06-22T10:40:39;4.57;;;3.05;;
37945;SDS011;23769;52.478;13.448;2023-06-22T10:43:07;3.92;;;3.00;;
37945;SDS011;23769;52.478;13.448;2023-06-22T10:45:34;3.83;;;2.78;;
37945;SDS011;23769;52.478;13.448;2023-06-22T10:48:01;4.13;;;3.17;;
37945;SDS011;23769;52.478;13.448;2023-06-22T10:50:28;3.47;;;2.90;;
37945;SDS011;23769;52.478;13.448;2023-06-22T10:52:57;5.28;;;2.80;;
37945;SDS011;23769;52.478;13.448;2023-06-22T10:55:24;5.25;;;2.70;;
37945;SDS011;23769;52.478;13.448;2023-06-22T10:57:52;3.05;;;2.47;;
37945;SDS011;23769;52.478;13.448;2023-06-22T11:00:19;3.40;;;2.70;;
37945;SDS011;23769;52.478;13.448;2023-06-22T11:02:47;5.05;;;2.70;;
37945;SDS011;23769;52.478;13.448;2023-06-22T11:05:14;4.82;;;2.90;;
37945;SDS011;23769;52.478;13.448;2023-06-22T11:07:41;4.80;;;2.92;;
37945;SDS011;23769;52.478;13.448;2023-06-22T11:10:10;4.00;;;2.80;;
37945;SDS011;23769;52.478;13.448;2023-06-22T11:12:38;2.88;;;2.60;;
37945;SDS011;23769;52.478;13.448;2023-06-22T11:15:05;3.53;;;3.13;;
37945;SDS011;23769;52.478;13.448;2023-06-22T11:17:33;3.72;;;3.05;;
37945;SDS011;23769;52.478;13.448;2023-06-22T11:20:00;6.32;;;2.83;;
37945;SDS011;23769;52.478;13.448;2023-06-22T11:22:30;3.80;;;3.05;;
37945;SDS011;23769;52.478;13.448;2023-06-22T11:24:58;3.80;;;2.90;;
37945;SDS011;23769;52.478;13.448;2023-06-22T11:27:27;5.55;;;2.80;;
37945;SDS011;23769;52.478;13.448;2023-06-22T11:29:54;4.70;;;3.40;;
37945;SDS011;23769;52.478;13.448;2023-06-22T11:32:22;4.32;;;2.72;;
37945;SDS011;23769;52.478;13.448;2023-06-22T11:34:49;3.13;;;2.67;;
37945;SDS011;23769;52.478;13.448;2023-06-22T11:37:16;6.72;;;2.92;;
37945;SDS011;23769;52.478;13.448;2023-06-22T11:39:44;4.35;;;3.22;;
37945;SDS011;23769;52.478;13.448;2023-06-22T11:42:11;3.25;;;2.95;;
37945;SDS011;23769;52.478;13.448;2023-06-22T11:44:39;5.18;;;3.63;;
37945;SDS011;23769;52.478;13.448;2023-06-22T11:47:07;3.10;;;2.80;;
37945;SDS011;23769;52.478;13.448;2023-06-22T11:49:34;4.85;;;3.03;;
37945;SDS011;23769;52.478;13.448;2023-06-22T11:52:01;4.50;;;2.53;;
37945;SDS011;23769;52.478;13.448;2023-06-22T11:54:28;3.63;;;3.08;;
37945;SDS011;23769;52.478;13.448;2023-06-22T11:56:56;3.50;;;2.75;;
37945;SDS011;23769;52.478;13.448;2023-06-22T11:59:23;7.43;;;3.70;;
37945;SDS011;23769;52.478;13.448;2023-06-22T12:01:51;4.85;;;3.60;;
37945;SDS011;23769;52.478;13.448;2023-06-22T12:04:19;5.80;;;2.92;;
37945;SDS011;23769;52.478;13.448;2023-06-22T12:06:46;4.20;;;2.95;;
37945;SDS011;23769;52.478;13.448;2023-06-22T12:09:13;5.45;;;3.30;;
37945;SDS011;23769;52.478;13.448;2023-06-22T12:11:40;4.65;;;2.90;;
37945;SDS011;23769;52.478;13.448;2023-06-22T12:14:08;3.85;;;3.30;;
37945;SDS011;23769;52.478;13.448;2023-06-22T12:16:35;6.70;;;3.00;;
37945;SDS011;23769;52.478;13.448;2023-06-22T12:19:04;7.38;;;3.20;;
37945;SDS011;23769;52.478;13.448;2023-06-22T12:21:31;5.85;;;3.40;;
37945;SDS011;23769;52.478;13.448;2023-06-22T12:23:58;5.82;;;3.13;;
37945;SDS011;23769;52.478;13.448;2023-06-22T12:26:25;5.07;;;3.78;;
37945;SDS011;23769;52.478;13.448;2023-06-22T12:28:53;3.75;;;3.40;;
37945;SDS011;23769;52.478;13.448;2023-06-22T12:31:20;10.60;;;4.10;;
37945;SDS011;23769;52.478;13.448;2023-06-22T12:33:47;5.15;;;3.60;;
37945;SDS011;23769;52.478;13.448;2023-06-22T12:36:16;5.18;;;3.20;;
37945;SDS011;23769;52.478;13.448;2023-06-22T12:38:43;5.63;;;3.90;;
37945;SDS011;23769;52.478;13.448;2023-06-22T12:41:10;4.10;;;3.30;;
37945;SDS011;23769;52.478;13.448;2023-06-22T12:43:38;4.85;;;3.83;;
37945;SDS011;23769;52.478;13.448;2023-06-22T12:46:05;5.75;;;3.97;;
37945;SDS011;23769;52.478;13.448;2023-06-22T12:48:32;4.00;;;3.65;;
37945;SDS011;23769;52.478;13.448;2023-06-22T12:51:02;6.10;;;3.67;;
37945;SDS011;23769;52.478;13.448;2023-06-22T12:53:31;4.07;;;3.50;;
37945;SDS011;23769;52.478;13.448;2023-06-22T12:55:58;4.05;;;3.50;;
37945;SDS011;23769;52.478;13.448;2023-06-22T12:58:26;5.07;;;3.83;;
37945;SDS011;23769;52.478;13.448;2023-06-22T13:00:53;6.20;;;3.90;;
37945;SDS011;23769;52.478;13.448;2023-06-22T13:03:20;5.97;;;3.60;;
37945;SDS011;23769;52.478;13.448;2023-06-22T13:05:49;6.38;;;3.97;;
37945;SDS011;23769;52.478;13.448;2023-06-22T13:08:16;4.55;;;3.78;;
37945;SDS011;23769;52.478;13.448;2023-06-22T13:10:45;3.70;;;3.30;;
37945;SDS011;23769;52.478;13.448;2023-06-22T13:13:12;4.43;;;4.00;;
37945;SDS011;23769;52.478;13.448;2023-06-22T13:15:39;8.43;;;4.63;;
37945;SDS011;23769;52.478;13.448;2023-06-22T13:18:06;4.65;;;3.42;;
37945;SDS011;23769;52.478;13.448;2023-06-22T13:20:33;3.97;;;3.58;;
37945;SDS011;23769;52.478;13.448;2023-06-22T13:23:01;6.03;;;3.63;;
37945;SDS011;23769;52.478;13.448;2023-06-22T13:25:28;4.63;;;3.80;;
37945;SDS011;23769;52.478;13.448;2023-06-22T13:27:56;4.85;;;3.72;;
37945;SDS011;23769;52.478;13.448;2023-06-22T13:30:26;4.32;;;3.75;;
37945;SDS011;23769;52.478;13.448;2023-06-22T13:32:54;4.45;;;3.60;;
37945;SDS011;23769;52.478;13.448;2023-06-22T13:35:21;5.38;;;4.03;;
37945;SDS011;23769;52.478;13.448;2023-06-22T13:37:48;6.05;;;3.85;;
37945;SDS011;23769;52.478;13.448;2023-06-22T13:40:15;4.85;;;3.88;;
37945;SDS011;23769;52.478;13.448;2023-06-22T13:42:43;6.18;;;4.45;;
37945;SDS011;23769;52.478;13.448;2023-06-22T13:45:11;5.25;;;3.78;;
37945;SDS011;23769;52.478;13.448;2023-06-22T13:47:39;9.02;;;4.28;;
37945;SDS011;23769;52.478;13.448;2023-06-22T13:50:06;4.38;;;3.97;;
37945;SDS011;23769;52.478;13.448;2023-06-22T13:52:33;5.95;;;4.00;;
37945;SDS011;23769;52.478;13.448;2023-06-22T13:55:01;5.72;;;4.03;;
37945;SDS011;23769;52.478;13.448;2023-06-22T13:57:29;5.10;;;4.03;;
37945;SDS011;23769;52.478;13.448;2023-06-22T13:59:57;4.90;;;3.88;;
37945;SDS011;23769;52.478;13.448;2023-06-22T14:02:25;5.78;;;3.78;;
37945;SDS011;23769;52.478;13.448;2023-06-22T14:04:53;5.63;;;3.63;;
37945;SDS011;23769;52.478;13.448;2023-06-22T14:07:20;8.95;;;3.70;;
37945;SDS011;23769;52.478;13.448;2023-06-22T14:09:49;7.82;;;3.92;;
37945;SDS011;23769;52.478;13.448;2023-06-22T14:12:16;6.57;;;4.07;;
37945;SDS011;23769;52.478;13.448;2023-06-22T14:14:44;5.05;;;4.35;;
37945;SDS011;23769;52.478;13.448;2023-06-22T14:17:11;6.80;;;3.85;;
37945;SDS011;23769;52.478;13.448;2023-06-22T14:19:40;6.10;;;3.80;;
37945;SDS011;23769;52.478;13.448;2023-06-22T14:22:07;5.93;;;4.05;;
37945;SDS011;23769;52.478;13.448;2023-06-22T14:24:34;5.10;;;3.65;;
37945;SDS011;23769;52.478;13.448;2023-06-22T14:27:01;6.07;;;3.90;;
37945;SDS011;23769;52.478;13.448;2023-06-22T14:29:32;5.72;;;3.85;;
37945;SDS011;23769;52.478;13.448;2023-06-22T14:31:59;5.85;;;3.80;;
37945;SDS011;23769;52.478;13.448;2023-06-22T14:34:27;4.65;;;3.58;;
37945;SDS011;23769;52.478;13.448;2023-06-22T14:36:55;5.32;;;3.78;;